Time;durP1;ratioP1;P1;durP2;ratioP2;P2;SDS_P1;SDS_P2;PMS_P1;PMS_P2;Temp;Humidity;BMP_temperature;BMP_pressure;BME280_temperature;BME280_humidity;BME280_pressure;Samples;Min_cycle;Max_cycle;Signal;HPM_P1;HPM_P2
2022/05/27 00:01:23;;;;;;;3.47;1.33;;;15.60;99.90;;;-144.05;62.50;125687.94;4976566;28;20027;-86
2022/05/27 00:03:50;;;;;;;2.35;0.90;;;15.60;99.90;;;-144.05;62.38;125687.94;4976817;28;20026;-86
2022/05/27 00:06:16;;;;;;;3.58;1.08;;;15.50;99.90;;;-144.05;63.04;125687.94;4992910;28;20113;-85
2022/05/27 00:08:42;;;;;;;3.05;1.42;;;15.50;99.90;;;-144.05;62.73;125687.94;4977107;28;20039;-87
2022/05/27 00:11:08;;;;;;;4.35;1.83;;;15.50;99.90;;;-144.05;62.86;125687.94;4977326;28;20027;-85
2022/05/27 00:13:36;;;;;;;1.98;1.02;;;15.60;99.90;;;-144.05;63.11;125687.94;4994285;28;20035;-87
2022/05/27 00:16:03;;;;;;;3.97;1.65;;;15.40;99.90;;;-144.05;63.44;125687.94;4994632;28;20363;-89
2022/05/27 00:18:29;;;;;;;2.58;1.70;;;15.50;99.90;;;-144.05;64.38;125687.94;4993334;28;20046;-85
2022/05/27 00:20:58;;;;;;;1.98;1.10;;;15.40;99.90;;;-144.05;65.09;125687.94;4977590;28;20038;-86
2022/05/27 00:23:27;;;;;;;4.72;2.03;;;15.40;99.90;;;-144.05;65.58;125687.94;4995961;28;20132;-84
2022/05/27 00:25:55;;;;;;;3.33;2.17;;;15.30;99.90;;;-144.05;65.80;125687.94;5013288;28;20043;-85
2022/05/27 00:28:21;;;;;;;4.15;1.88;;;15.20;99.90;;;-144.05;65.91;125687.94;4975681;28;20400;-85
2022/05/27 00:30:48;;;;;;;3.38;2.15;;;15.20;99.90;;;-144.05;66.14;125687.94;4991896;28;20034;-87
2022/05/27 00:33:14;;;;;;;5.40;2.58;;;15.10;99.90;;;-144.05;67.00;125687.94;4991669;28;20376;-85
2022/05/27 00:35:40;;;;;;;3.05;1.90;;;15.10;99.90;;;-144.05;68.28;125687.94;4991454;28;20030;-84
2022/05/27 00:38:08;;;;;;;4.10;2.28;;;15.10;99.90;;;-144.05;69.53;125687.94;4992200;28;20041;-83
2022/05/27 00:40:46;;;;;;;4.57;2.33;;;14.90;99.90;;;-144.05;70.39;125687.94;4975824;28;20595;-88
2022/05/27 00:43:13;;;;;;;5.13;2.67;;;14.90;99.90;;;-144.05;71.27;125687.94;4992583;28;20027;-87
2022/05/27 00:45:50;;;;;;;5.95;2.10;;;14.90;99.90;;;-144.05;73.00;125687.94;4975954;28;20442;-84
2022/05/27 00:48:23;;;;;;;5.18;2.70;;;14.70;99.90;;;-144.05;75.44;125687.94;4992996;28;20077;-88
2022/05/27 00:50:51;;;;;;;5.63;2.63;;;14.60;99.90;;;-144.05;76.17;125687.94;4976109;28;20030;-86
2022/05/27 00:53:35;;;;;;;7.03;3.33;;;14.50;99.90;;;-144.05;77.69;125687.94;4991300;28;20126;-84
2022/05/27 00:56:07;;;;;;;5.57;2.72;;;14.40;99.90;;;-144.05;78.48;125687.94;4991370;28;20421;-86
2022/05/27 00:58:46;;;;;;;5.20;3.03;;;14.20;99.90;;;-144.05;79.72;125687.94;4990657;28;20037;-86
2022/05/27 01:01:17;;;;;;;7.57;3.25;;;14.20;99.90;;;-144.05;80.54;125687.94;4977179;28;20085;-87
2022/05/27 01:03:44;;;;;;;8.05;3.47;;;14.10;99.90;;;-144.05;80.89;125687.94;4977609;28;20309;-88
2022/05/27 01:06:10;;;;;;;7.43;3.10;;;14.00;99.90;;;-144.05;81.34;125687.94;4977993;28;20118;-88
2022/05/27 01:09:29;;;;;;;5.38;3.13;;;14.00;99.90;;;-144.05;82.24;125687.94;4993847;28;20070;-90
2022/05/27 01:13:01;;;;;;;5.68;3.10;;;13.90;99.90;;;-144.05;82.47;125687.94;4994550;28;20117;-85
2022/05/27 01:16:04;;;;;;;5.47;3.22;;;13.90;99.90;;;-144.05;82.53;125687.94;4979485;28;20022;-88
2022/05/27 01:23:03;;;;;;;5.97;2.95;;;13.80;99.90;;;-144.05;82.97;125687.94;4980648;28;20033;-87
2022/05/27 01:26:24;;;;;;;8.40;3.30;;;13.80;99.90;;;-144.05;83.42;125687.94;4978671;28;20503;-88
2022/05/27 01:29:32;;;;;;;5.18;3.33;;;13.70;99.90;;;-144.05;83.89;125687.94;4978887;28;20030;-87
2022/05/27 01:32:26;;;;;;;5.00;3.63;;;13.80;99.90;;;-144.05;83.56;125687.94;4981007;28;20029;-87
2022/05/27 01:35:08;;;;;;;5.47;3.40;;;13.80;99.90;;;-144.05;83.88;125687.94;4991524;28;20030;-85
2022/05/27 01:37:54;;;;;;;6.32;3.17;;;13.70;99.90;;;-144.05;84.62;125687.94;4991343;28;20029;-88
2022/05/27 01:41:01;;;;;;;8.50;3.88;;;13.70;99.90;;;-144.05;85.41;125687.94;4975438;28;20042;-88
2022/05/27 01:43:40;;;;;;;7.50;4.38;;;13.70;99.90;;;-144.05;85.68;125687.94;4975124;28;20030;-88
2022/05/27 01:46:36;;;;;;;7.22;3.95;;;13.70;99.90;;;-144.05;85.59;125687.94;4990841;28;20026;-89
2022/05/27 01:49:19;;;;;;;11.45;3.97;;;13.70;99.90;;;-144.05;86.66;125687.94;4990975;28;20065;-87
2022/05/27 01:52:12;;;;;;;7.97;4.03;;;13.70;99.90;;;-144.05;86.39;125687.94;4992374;28;20039;-89
2022/05/27 01:55:10;;;;;;;5.35;3.53;;;13.60;99.90;;;-144.05;87.07;125687.94;5004791;28;20069;-91
2022/05/27 01:58:07;;;;;;;8.25;4.03;;;13.60;99.90;;;-144.05;87.83;125687.94;5008749;28;20027;-91
2022/05/27 02:00:39;;;;;;;7.25;4.15;;;13.50;99.90;;;-144.05;87.52;125687.94;4999680;28;20143;-87
2022/05/27 02:03:39;;;;;;;8.05;4.35;;;13.60;99.90;;;-144.05;87.55;125687.94;4976365;28;20086;-87
2022/05/27 02:06:30;;;;;;;7.97;4.00;;;13.50;99.90;;;-144.05;88.02;125687.94;4991396;28;20098;-86
2022/05/27 02:09:16;;;;;;;8.48;3.90;;;13.50;99.90;;;-144.05;87.85;125687.94;4991766;28;20541;-88
2022/05/27 02:11:49;;;;;;;9.27;4.50;;;13.50;99.90;;;-144.05;88.03;125687.94;4991572;28;20037;-88
2022/05/27 02:14:40;;;;;;;7.85;4.28;;;13.50;99.90;;;-144.05;87.87;125687.94;4991683;28;20143;-85
2022/05/27 02:17:21;;;;;;;8.73;4.28;;;13.50;99.90;;;-144.05;88.25;125687.94;4992071;28;20038;-88
2022/05/27 02:20:06;;;;;;;7.72;3.97;;;13.40;99.90;;;-144.05;88.21;125687.94;4995283;28;20039;-87
2022/05/27 02:22:43;;;;;;;8.45;4.53;;;13.50;99.90;;;-144.05;88.33;125687.94;4981526;28;20022;-89
2022/05/27 02:25:28;;;;;;;10.18;4.78;;;13.40;99.90;;;-144.05;88.41;125687.94;4997769;28;20078;-88
2022/05/27 02:28:34;;;;;;;11.05;4.82;;;13.40;99.90;;;-144.05;88.46;125687.94;4997588;28;20037;-88
2022/05/27 02:31:10;;;;;;;8.48;5.43;;;13.40;99.90;;;-144.05;88.68;125687.94;5007656;28;20023;-83
2022/05/27 02:36:49;;;;;;;6.00;5.07;;;13.50;99.90;;;-144.05;88.38;125687.94;4983382;28;20065;-88
2022/05/27 02:39:15;;;;;;;13.73;6.15;;;13.50;99.90;;;-144.05;88.66;125687.94;4998502;28;20134;-88
2022/05/27 02:42:09;;;;;;;8.93;5.07;;;13.40;99.90;;;-144.05;88.76;125687.94;4982609;28;20027;-88
2022/05/27 02:45:13;;;;;;;7.97;5.07;;;13.40;99.90;;;-144.05;89.01;125687.94;4984131;28;20034;-91
2022/05/27 02:48:05;;;;;;;9.60;5.65;;;13.40;99.90;;;-144.05;88.98;125687.94;4987262;28;20027;-87
2022/05/27 02:50:48;;;;;;;9.98;6.10;;;13.40;99.90;;;-144.05;89.36;125687.94;4998996;28;20043;-89
2022/05/27 02:53:39;;;;;;;10.27;6.50;;;13.40;99.90;;;-144.05;89.09;125687.94;4997882;28;20042;-88
2022/05/27 02:56:27;;;;;;;10.77;6.40;;;13.40;99.90;;;-144.05;89.88;125687.94;4997882;28;20038;-87
2022/05/27 02:58:54;;;;;;;10.90;6.35;;;13.40;99.90;;;-144.05;89.99;125687.94;4996364;28;20399;-88
2022/05/27 03:01:23;;;;;;;10.43;6.47;;;13.40;99.90;;;-144.05;90.13;125687.94;4979525;28;20041;-89
2022/05/27 03:03:52;;;;;;;9.98;6.30;;;13.40;99.90;;;-144.05;90.38;125687.94;4996192;28;20023;-89
2022/05/27 03:06:27;;;;;;;12.25;6.88;;;13.30;99.90;;;-144.05;90.37;125687.94;4997383;28;20671;-87
2022/05/27 03:09:56;;;;;;;11.60;6.63;;;13.30;99.90;;;-144.05;90.94;125687.94;4979130;28;20368;-86
2022/05/27 03:13:28;;;;;;;13.38;7.80;;;13.30;99.90;;;-144.05;91.47;125687.94;4959718;28;20063;-89
2022/05/27 03:16:40;;;;;;;13.05;6.97;;;13.30;99.90;;;-144.05;91.48;125687.94;4978034;28;20055;-89
2022/05/27 03:19:32;;;;;;;12.52;7.82;;;13.30;99.90;;;-144.05;91.10;125687.94;4977079;28;20024;-89
2022/05/27 03:22:28;;;;;;;17.10;7.80;;;13.20;99.90;;;-144.05;91.31;125687.94;4950732;29;20041;-87
2022/05/27 03:25:37;;;;;;;9.25;6.35;;;13.20;99.90;;;-144.05;91.54;125687.94;4977269;28;20026;-88
2022/05/27 03:28:38;;;;;;;13.93;7.50;;;13.20;99.90;;;-144.05;91.63;125687.94;4961738;28;20035;-84
2022/05/27 03:31:24;;;;;;;9.68;7.18;;;13.20;99.90;;;-144.05;92.07;125687.94;4975560;28;20090;-88
2022/05/27 03:34:42;;;;;;;11.85;7.43;;;13.20;99.90;;;-144.05;91.91;125687.94;4959304;28;20451;-88
2022/05/27 03:37:34;;;;;;;11.73;7.32;;;13.20;99.90;;;-144.05;92.13;125687.94;4977190;28;20122;-89
2022/05/27 03:40:26;;;;;;;13.13;7.80;;;13.20;99.90;;;-144.05;92.29;125687.94;4957894;28;20039;-86
2022/05/27 03:42:58;;;;;;;12.55;7.60;;;13.20;99.90;;;-144.05;92.54;125687.94;4957903;28;20110;-89
2022/05/27 03:45:25;;;;;;;10.82;7.60;;;13.10;99.90;;;-144.05;92.95;125687.94;4958409;28;20034;-85
2022/05/27 03:47:52;;;;;;;9.52;7.57;;;13.10;99.90;;;-144.05;93.06;125687.94;4957596;28;20028;-87
2022/05/27 03:50:25;;;;;;;10.73;6.50;;;13.10;99.90;;;-144.05;92.62;125687.94;4973227;28;20058;-86
2022/05/27 03:52:55;;;;;;;9.68;6.30;;;13.20;99.90;;;-144.05;93.06;125687.94;4972990;28;20122;-88
2022/05/27 03:55:26;;;;;;;12.85;5.65;;;13.20;99.90;;;-144.05;92.71;125687.94;4957030;28;20411;-87
2022/05/27 03:57:53;;;;;;;8.32;5.38;;;13.10;99.90;;;-144.05;92.59;125687.94;4974138;28;20132;-87
2022/05/27 04:00:23;;;;;;;5.88;3.70;;;13.10;99.90;;;-144.05;91.03;125687.94;4957086;28;20086;-89
2022/05/27 04:02:49;;;;;;;7.15;3.78;;;13.00;99.90;;;-144.05;90.65;125687.94;4957360;28;20070;-89
2022/05/27 04:05:17;;;;;;;5.00;3.20;;;12.90;99.90;;;-144.05;90.27;125687.94;4957185;28;20035;-89
2022/05/27 04:07:46;;;;;;;5.22;3.50;;;12.90;99.90;;;-144.05;90.40;125687.94;4958048;28;20031;-87
2022/05/27 04:10:15;;;;;;;4.22;3.15;;;12.80;99.90;;;-144.05;90.29;125687.94;4977019;28;20043;-86
2022/05/27 04:12:41;;;;;;;5.22;2.80;;;12.80;99.90;;;-144.05;90.16;125687.94;4992700;28;20057;-87
2022/05/27 04:15:08;;;;;;;5.32;2.92;;;12.80;99.90;;;-144.05;90.12;125687.94;4993489;28;20031;-89
2022/05/27 04:17:37;;;;;;;5.57;3.08;;;12.70;99.90;;;-144.05;90.16;125687.94;4976194;28;20043;-89
2022/05/27 04:20:14;;;;;;;7.82;3.17;;;12.60;99.90;;;-144.05;90.02;125687.94;4992321;28;20034;-88
2022/05/27 04:22:41;;;;;;;6.18;2.95;;;12.70;99.90;;;-144.05;89.73;125687.94;4976815;28;20066;-88
2022/05/27 04:25:10;;;;;;;4.60;3.10;;;12.70;99.90;;;-144.05;89.87;125687.94;4975753;28;20031;-85
2022/05/27 04:27:38;;;;;;;5.07;2.83;;;12.60;99.90;;;-144.05;89.99;125687.94;4978076;28;20030;-87
2022/05/27 04:30:09;;;;;;;6.10;2.72;;;12.60;99.90;;;-144.05;89.92;125687.94;4975421;28;20058;-89
2022/05/27 04:32:35;;;;;;;8.02;3.00;;;12.50;99.90;;;-144.05;89.56;125687.94;4974829;28;20085;-86
2022/05/27 04:35:01;;;;;;;5.40;2.30;;;12.50;99.90;;;-144.05;89.42;125687.94;4975969;28;20526;-91
2022/05/27 04:37:27;;;;;;;4.68;2.25;;;12.50;99.90;;;-144.05;89.41;125687.94;4992583;28;20027;-87
2022/05/27 04:39:55;;;;;;;6.13;2.42;;;12.50;99.90;;;-144.05;89.33;125687.94;4998280;28;20042;-82
2022/05/27 04:42:21;;;;;;;10.85;2.72;;;12.60;99.90;;;-144.05;89.40;125687.94;5004540;28;20039;-87
2022/05/27 04:44:47;;;;;;;4.10;2.60;;;12.50;99.90;;;-144.05;89.43;125687.94;4997347;28;20055;-85
2022/05/27 04:47:13;;;;;;;4.35;2.72;;;12.60;99.90;;;-144.05;89.44;125687.94;4982778;28;20027;-86
2022/05/27 04:49:51;;;;;;;6.97;2.88;;;12.50;99.90;;;-144.05;89.69;125687.94;4981757;28;20094;-88
2022/05/27 04:52:31;;;;;;;5.82;2.50;;;12.50;99.90;;;-144.05;90.05;125687.94;4996364;28;20027;-85
2022/05/27 04:55:07;;;;;;;3.90;2.60;;;12.50;99.90;;;-144.05;89.71;125687.94;4977861;28;20094;-88
2022/05/27 04:58:00;;;;;;;;;;;;;;;;;;;;;
2022/05/27 05:00:44;;;;;;;4.53;2.95;;;12.50;99.90;;;-144.05;89.62;125687.94;4976026;28;20491;-90
2022/05/27 05:03:13;;;;;;;5.20;2.90;;;12.50;99.90;;;-144.05;89.81;125687.94;4975969;28;20372;-88
2022/05/27 05:05:43;;;;;;;6.15;2.97;;;12.60;99.90;;;-144.05;89.49;125687.94;4991556;28;20069;-88
2022/05/27 05:08:36;;;;;;;3.40;2.63;;;12.60;99.90;;;-144.05;89.39;125687.94;4992412;28;20027;-87
2022/05/27 05:11:19;;;;;;;;;;;;;;;;;;;;;
2022/05/27 05:13:45;;;;;;;4.10;2.63;;;12.70;99.90;;;-144.05;89.59;125687.94;4980601;28;20093;-91
2022/05/27 05:16:13;;;;;;;4.72;2.70;;;12.70;99.90;;;-144.05;89.47;125687.94;4982033;28;20062;-86
2022/05/27 05:18:42;;;;;;;7.97;3.08;;;12.80;99.90;;;-144.05;89.24;125687.94;4978619;28;20085;-87
2022/05/27 05:21:21;;;;;;;;;;;;;;;;;;;;;
2022/05/27 05:24:02;;;;;;;;;;;;;;;;;;;;;
2022/05/27 05:26:28;;;;;;;11.52;3.72;;;12.80;99.90;;;-144.05;89.44;125687.94;4976063;28;20122;-89
2022/05/27 05:28:54;;;;;;;6.72;2.97;;;12.80;99.90;;;-144.05;89.26;125687.94;4974524;28;20439;-89
2022/05/27 05:31:20;;;;;;;3.80;2.60;;;12.80;99.90;;;-144.05;88.75;125687.94;4975457;28;20376;-90
2022/05/27 05:33:48;;;;;;;7.65;3.38;;;12.90;99.90;;;-144.05;88.70;125687.94;4974076;28;20125;-90
2022/05/27 05:36:19;;;;;;;7.47;3.60;;;12.90;99.90;;;-144.05;88.29;125687.94;4990683;28;20026;-87
2022/05/27 05:38:58;;;;;;;6.88;3.15;;;12.90;99.90;;;-144.05;87.94;125687.94;4990024;28;20038;-88
2022/05/27 05:41:40;;;;;;;6.43;2.95;;;13.10;99.90;;;-144.05;86.83;125687.94;4990063;28;20442;-88
2022/05/27 05:44:17;;;;;;;6.57;3.08;;;13.30;99.90;;;-144.05;85.77;125687.94;4990003;28;20023;-89
2022/05/27 05:46:47;;;;;;;4.03;2.90;;;13.50;99.90;;;-144.05;85.79;125687.94;4974497;28;20492;-90
2022/05/27 05:49:23;;;;;;;6.80;3.20;;;13.60;99.90;;;-144.05;85.16;125687.94;4972938;28;20041;-89
2022/05/27 05:51:56;;;;;;;5.90;3.03;;;13.60;99.90;;;-144.05;85.56;125687.94;4973691;28;20030;-88
2022/05/27 05:54:42;;;;;;;5.55;2.92;;;13.60;99.90;;;-144.05;85.05;125687.94;4973096;28;20078;-88
2022/05/27 05:57:11;;;;;;;;;;;13.70;99.90;;;-144.05;84.67;125687.94;4989875;28;20039;-89
2022/05/27 05:59:47;;;;;;;6.03;2.72;;;13.80;99.90;;;-144.05;84.59;125687.94;4989952;28;19957;-90
2022/05/27 06:02:13;;;;;;;4.93;3.17;;;13.90;99.90;;;-144.05;84.97;125687.94;4973497;28;20051;-89
2022/05/27 06:04:39;;;;;;;4.75;2.63;;;13.90;99.90;;;-144.05;84.96;125687.94;4973570;28;20092;-90
2022/05/27 06:07:13;;;;;;;7.90;2.92;;;13.90;99.90;;;-144.05;85.18;125687.94;4974262;28;20474;-89
2022/05/27 06:09:41;;;;;;;4.25;3.25;;;13.90;99.90;;;-144.05;84.92;125687.94;4975036;28;20039;-89
2022/05/27 06:12:22;;;;;;;;;;;;;;;;;;;;;
2022/05/27 06:15:34;;;;;;;;;;;;;;;;;;;;;
2022/05/27 06:18:13;;;;;;;7.57;3.20;;;14.00;99.90;;;-144.05;84.06;125687.94;4989287;28;20067;-87
2022/05/27 06:21:06;;;;;;;;;;;;;;;;;;;;;
2022/05/27 06:24:24;;;;;;;;;;;;;;;;;;;;;
2022/05/27 06:26:58;;;;;;;10.02;4.05;;;14.30;99.90;;;-144.05;83.63;125687.94;4978252;28;20263;-90
2022/05/27 06:35:35;;;;;;;;;;;;;;;;;;;;;
2022/05/27 06:38:15;;;;;;;7.68;4.35;;;14.20;99.90;;;-144.05;84.06;125687.94;4975695;28;20039;-89
2022/05/27 06:41:05;;;;;;;6.18;3.90;;;14.20;99.90;;;-144.05;83.56;125687.94;4986304;28;20054;-88
2022/05/27 06:44:00;;;;;;;7.75;4.18;;;14.40;99.90;;;-144.05;82.53;125687.94;4989680;28;20081;-86
2022/05/27 06:46:41;;;;;;;6.32;3.53;;;14.50;99.90;;;-144.05;80.90;125687.94;4993768;28;20055;-84
2022/05/27 06:49:17;;;;;;;4.93;3.10;;;14.80;99.90;;;-144.05;80.22;125687.94;5009423;28;20046;-86
2022/05/27 06:52:40;;;;;;;;;;;;;;;;;;;;;
2022/05/27 06:55:13;;;;;;;9.07;4.20;;;15.30;99.90;;;-144.05;78.68;125687.94;4975112;28;20109;-90
2022/05/27 06:57:42;;;;;;;10.07;4.35;;;15.50;99.90;;;-144.05;76.88;125687.94;4974627;28;20130;-89
2022/05/27 07:00:12;;;;;;;9.32;4.45;;;15.70;99.90;;;-144.05;75.87;125687.94;4974036;28;20026;-91
2022/05/27 07:02:46;;;;;;;8.77;4.30;;;16.00;99.90;;;-144.05;74.11;125687.94;4974636;28;20058;-91
2022/05/27 07:05:22;;;;;;;6.25;3.30;;;16.20;99.90;;;-144.05;72.93;125687.94;4980516;28;20388;-93
2022/05/27 07:08:01;;;;;;;8.95;3.88;;;16.60;99.90;;;-144.05;71.67;125687.94;4991388;28;20094;-88
2022/05/27 07:10:27;;;;;;;9.10;3.72;;;16.60;99.90;;;-144.05;69.56;125687.94;5007728;28;20134;-86
2022/05/27 07:12:59;;;;;;;8.02;4.22;;;16.60;99.90;;;-144.05;70.58;125687.94;5004904;28;20046;-90
2022/05/27 07:15:47;;;;;;;5.50;4.07;;;16.70;99.90;;;-144.05;69.60;125687.94;5014384;28;20022;-88
2022/05/27 07:18:21;;;;;;;6.80;3.75;;;16.90;99.90;;;-144.05;68.10;125687.94;5005531;28;20031;-85
2022/05/27 07:21:29;;;;;;;8.85;4.40;;;16.90;99.90;;;-144.05;65.73;125687.94;5004985;28;20035;-91
2022/05/27 07:24:02;;;;;;;10.95;4.68;;;17.10;99.90;;;-144.05;65.22;125687.94;4982614;28;20031;-90
2022/05/27 07:26:31;;;;;;;9.95;4.38;;;17.30;99.90;;;-144.05;64.77;125687.94;4979156;28;20120;-89
2022/05/27 07:29:04;;;;;;;10.18;4.45;;;17.50;99.90;;;-144.05;65.30;125687.94;4979171;28;20043;-89
2022/05/27 07:31:51;;;;;;;8.10;4.15;;;17.50;99.90;;;-144.05;63.17;125687.94;4978413;28;20058;-91
2022/05/27 07:34:25;;;;;;;9.75;4.07;;;17.50;99.90;;;-144.05;64.23;125687.94;4977047;28;20035;-91
2022/05/27 07:37:11;;;;;;;8.18;3.50;;;17.20;99.90;;;-144.05;64.07;125687.94;4995555;28;20027;-90
2022/05/27 07:39:37;;;;;;;8.65;3.55;;;17.20;99.90;;;-144.05;61.50;125687.94;4996140;28;20023;-90
2022/05/27 07:42:56;;;;;;;9.05;4.00;;;17.10;99.90;;;-144.05;62.03;125687.94;4984120;28;20031;-87
2022/05/27 07:45:36;;;;;;;;;;;;;;;;;;;;;
2022/05/27 07:48:18;;;;;;;9.18;3.03;;;17.40;99.90;;;-144.05;60.42;125687.94;4980716;28;20383;-90
2022/05/27 07:50:44;;;;;;;8.38;3.35;;;18.00;99.90;;;-144.05;58.43;125687.94;4979766;28;20034;-90
2022/05/27 07:53:23;;;;;;;;;;;;;;;;;;;;;
2022/05/27 07:55:58;;;;;;;8.32;3.70;;;18.90;99.90;;;-144.05;55.99;125687.94;4982053;28;20086;-92
2022/05/27 07:58:50;;;;;;;;;;;;;;;;;;;;;
2022/05/27 08:01:17;;;;;;;8.60;3.05;;;19.10;99.90;;;-144.05;54.19;125687.94;4985292;28;20121;-92
2022/05/27 08:08:29;;;;;;;6.97;2.72;;;19.10;99.90;;;-144.05;53.70;125687.94;4983531;28;20491;-90
2022/05/27 08:12:06;;;;;;;;;;;;;;;;;;;;;
2022/05/27 08:14:47;;;;;;;;;;;;;;;;;;;;;
2022/05/27 08:18:35;;;;;;;;;;;;;;;;;;;;;
2022/05/27 08:30:48;;;;;;;;;;;;;;;;;;;;;
2022/05/27 08:42:09;;;;;;;;;;;;;;;;;;;;;
2022/05/27 08:46:11;;;;;;;;;;;;;;;;;;;;;
2022/05/27 08:50:00;;;;;;;;;;;;;;;;;;;;;
2022/05/27 08:53:37;;;;;;;;;;;17.10;99.90;;;-144.05;56.28;125687.94;4987328;28;20090;-80
2022/05/27 09:00:47;;;;;;;;;;;;;;;;;;;;;
2022/05/27 09:04:34;;;;;;;;;;;;;;;;;;;;;
2022/05/27 09:07:26;;;;;;;;;;;;;;;;;;;;;
2022/05/27 09:10:23;;;;;;;;;;;;;;;;;;;;;
2022/05/27 09:13:35;;;;;;;;;;;;;;;;;;;;;
2022/05/27 09:17:15;;;;;;;;;;;;;;;;;;;;;
2022/05/27 09:21:12;;;;;;;;;;;;;;;;;;;;;
2022/05/27 09:24:07;;;;;;;;;;;;;;;;;;;;;
2022/05/27 09:27:27;;;;;;;;;;;;;;;;;;;;;
2022/05/27 09:30:06;;;;;;;5.18;2.03;;;18.20;99.90;;;-144.05;50.04;125687.94;4980463;28;20130;-87
2022/05/27 09:32:44;;;;;;;4.95;1.98;;;18.80;99.90;;;-144.05;51.20;125687.94;4981552;28;20038;-86
2022/05/27 09:35:34;;;;;;;6.72;1.77;;;19.10;99.90;;;-144.05;46.84;125687.94;4998475;28;20037;-87
2022/05/27 09:39:03;;;;;;;;;;;;;;;;;;;;;
2022/05/27 09:42:33;;;;;;;6.95;2.10;;;20.00;99.90;;;-144.05;41.96;125687.94;4984476;28;20102;-84
2022/05/27 09:45:16;;;;;;;5.65;2.13;;;20.10;99.90;;;-144.05;41.76;125687.94;4984841;28;20031;-87
2022/05/27 09:48:18;;;;;;;;;;;;;;;;;;;;;
2022/05/27 09:51:06;;;;;;;;;;;;;;;;;;;;;
2022/05/27 09:54:36;;;;;;;7.20;2.10;;;19.80;97.90;;;-144.05;43.23;125687.94;4985387;28;20555;-88
2022/05/27 09:57:25;;;;;;;8.23;2.22;;;20.40;99.90;;;-144.05;42.17;125687.94;4965964;28;20093;-88
2022/05/27 10:00:12;;;;;;;7.28;2.35;;;21.20;99.90;;;-144.05;39.39;125687.94;4982992;28;20078;-89
2022/05/27 10:02:54;;;;;;;5.70;1.80;;;21.70;92.00;;;-144.05;38.64;125687.94;4984547;28;20031;-89
2022/05/27 10:05:47;;;;;;;;;;;;;;;;;;;;;
2022/05/27 10:08:44;;;;;;;8.55;2.33;;;21.50;85.60;;;-144.05;40.08;125687.94;4986526;28;20054;-91
2022/05/27 10:11:36;;;;;;;7.93;2.55;;;20.50;88.00;;;-144.05;41.31;125687.94;4987748;28;20026;-87
2022/05/27 10:14:57;;;;;;;5.18;2.30;;;19.70;92.70;;;-144.05;41.13;125687.94;5001053;28;20031;-86
2022/05/27 10:17:36;;;;;;;5.85;2.20;;;19.40;93.20;;;-144.05;42.44;125687.94;4981166;28;20061;-88
2022/05/27 10:20:36;;;;;;;8.07;2.45;;;20.10;99.90;;;-144.05;39.56;125687.94;4979786;28;20038;-88
2022/05/27 10:23:26;;;;;;;7.57;2.03;;;21.10;90.50;;;-144.05;38.77;125687.94;4980351;28;20030;-89
2022/05/27 10:26:04;;;;;;;9.63;2.50;;;21.30;87.20;;;-144.05;38.22;125687.94;4977983;28;20471;-89
2022/05/27 10:28:38;;;;;;;4.28;1.67;;;21.30;83.20;;;-144.05;37.49;125687.94;4976748;28;20121;-89
2022/05/27 10:31:26;;;;;;;10.70;2.55;;;21.40;82.60;;;-144.05;37.37;125687.94;4975187;28;20041;-89
2022/05/27 10:34:50;;;;;;;9.15;2.10;;;21.70;81.80;;;-144.05;37.40;125687.94;4991821;28;20051;-90
2022/05/27 10:38:03;;;;;;;;;;;;;;;;;;;;;
2022/05/27 10:41:07;;;;;;;10.30;2.47;;;21.40;86.00;;;-144.05;37.82;125687.94;4977661;28;20031;-87
2022/05/27 10:44:23;;;;;;;7.70;2.00;;;20.70;77.40;;;-144.05;38.87;125687.94;4995262;28;20043;-87
2022/05/27 10:46:58;;;;;;;8.95;2.20;;;20.10;82.30;;;-144.05;38.56;125687.94;4978362;28;20391;-88
2022/05/27 10:50:35;;;;;;;7.60;2.50;;;20.40;83.00;;;-144.05;37.61;125687.94;4979880;28;20065;-90
2022/05/27 10:53:26;;;;;;;9.93;2.35;;;20.80;78.20;;;-144.05;36.87;125687.94;4977250;28;20309;-89
2022/05/27 11:04:14;;;;;;;8.65;2.22;;;22.50;69.30;;;-144.05;35.89;125687.94;4991780;28;20094;-88
2022/05/27 11:08:05;;;;;;;;;;;;;;;;;;;;;
2022/05/27 11:11:05;;;;;;;7.05;1.90;;;22.70;71.90;;;-144.05;35.60;125687.94;4980913;28;20126;-90
2022/05/27 11:17:48;;;;;;;7.47;2.22;;;22.40;70.10;;;-144.05;35.89;125687.94;4977813;28;20042;-88
2022/05/27 11:20:46;;;;;;;6.85;1.90;;;21.20;69.70;;;-144.05;36.57;125687.94;4975362;28;20031;-89
2022/05/27 11:23:57;;;;;;;6.50;2.17;;;20.20;72.00;;;-144.05;37.11;125687.94;4976347;28;20031;-90
2022/05/27 11:28:09;;;;;;;7.05;2.10;;;19.90;73.40;;;-144.05;37.16;125687.94;4957845;28;20363;-89
2022/05/27 11:31:04;;;;;;;6.43;1.88;;;19.90;74.00;;;-144.05;35.24;125687.94;4972009;28;20027;-88
2022/05/27 11:34:29;;;;;;;4.95;2.10;;;21.30;70.70;;;-144.05;34.82;125687.94;4992367;28;20450;-88
2022/05/27 11:37:32;;;;;;;7.70;2.55;;;21.90;69.80;;;-144.05;33.72;125687.94;4992067;28;20050;-89
2022/05/27 11:40:55;;;;;;;7.75;2.10;;;22.70;67.50;;;-144.05;33.04;125687.94;4992667;28;20030;-90
2022/05/27 11:47:37;;;;;;;;;;;;;;;;;;;;;
2022/05/27 11:51:24;;;;;;;7.25;2.05;;;23.50;65.50;;;-144.05;32.28;125687.94;4979431;28;20118;-89
2022/05/27 11:54:22;;;;;;;9.43;2.13;;;23.50;60.80;;;-144.05;32.29;125687.94;4978421;28;20098;-88
2022/05/27 11:58:07;;;;;;;7.15;2.42;;;22.20;61.00;;;-144.05;34.24;125687.94;4992360;28;20026;-88
2022/05/27 12:09:17;;;;;;;;;;;;;;;;;;;;;
2022/05/27 12:12:41;;;;;;;7.38;2.00;;;22.10;65.40;;;-144.05;31.65;125687.94;4976470;28;20117;-86
2022/05/27 12:15:56;;;;;;;7.07;2.20;;;22.70;61.30;;;-144.05;31.09;125687.94;4977499;28;20047;-85
2022/05/27 12:19:40;;;;;;;;;;;;;;;;;;;;;
2022/05/27 12:22:34;;;;;;;7.35;1.95;;;22.70;59.30;;;-144.05;31.50;125687.94;4971625;28;20655;-89
2022/05/27 12:29:29;;;;;;;;;;;;;;;;;;;;;
2022/05/27 12:32:31;;;;;;;8.07;1.87;;;22.10;60.30;;;-144.05;32.02;125687.94;4980911;28;20114;-84
2022/05/27 12:35:44;;;;;;;;;;;;;;;;;;;;;
2022/05/27 12:38:27;;;;;;;7.20;1.98;;;21.90;58.70;;;-144.05;31.95;125687.94;4979149;28;20037;-86
2022/05/27 12:41:27;;;;;;;;;;;;;;;;;;;;;
2022/05/27 12:44:30;;;;;;;6.78;1.98;;;22.30;60.20;;;-144.05;32.37;125687.94;4976271;28;20037;-89
2022/05/27 12:47:04;;;;;;;9.02;1.95;;;21.70;60.30;;;-144.05;33.56;125687.94;4991101;28;20031;-89
2022/05/27 12:49:58;;;;;;;11.45;2.42;;;20.70;61.70;;;-144.05;34.03;125687.94;4975117;28;20046;-88
2022/05/27 12:52:30;;;;;;;7.65;2.47;;;20.60;64.00;;;-144.05;35.91;125687.94;4974565;28;20066;-89
2022/05/27 12:54:59;;;;;;;8.45;2.35;;;21.30;68.20;;;-144.05;32.68;125687.94;4991149;28;20046;-88
2022/05/27 13:03:45;;;;;;;;;;;;;;;;;;;;;
2022/05/27 13:06:37;;;;;;;6.25;1.95;;;22.30;57.60;;;-144.05;32.42;125687.94;4986600;28;20091;-85
2022/05/27 13:13:15;;;;;;;7.68;2.60;;;21.20;61.50;;;-144.05;34.72;125687.94;4955663;28;20050;-90
2022/05/27 13:16:51;;;;;;;6.53;2.08;;;20.60;64.90;;;-144.05;33.67;125687.94;4975774;28;20050;-89
2022/05/27 13:20:12;;;;;;;5.32;1.95;;;20.70;63.00;;;-144.05;32.34;125687.94;4947331;28;20507;-89
2022/05/27 13:23:25;;;;;;;8.27;1.70;;;21.40;61.00;;;-144.05;31.52;125687.94;4968029;28;20111;-88
2022/05/27 13:27:04;;;;;;;4.78;1.77;;;21.90;58.80;;;-144.05;29.67;125687.94;4973667;28;20035;-88
2022/05/27 13:30:13;;;;;;;14.77;2.13;;;22.00;54.90;;;-144.05;30.29;125687.94;4934780;29;20023;-89
2022/05/27 13:33:25;;;;;;;7.85;2.22;;;22.40;57.90;;;-144.05;30.31;125687.94;4956312;29;20451;-89
2022/05/27 13:36:45;;;;;;;6.20;2.10;;;22.20;55.70;;;-144.05;30.70;125687.94;4974523;28;20042;-89
2022/05/27 13:40:13;;;;;;;;;;;;;;;;;;;;;
2022/05/27 13:44:09;;;;;;;10.65;2.08;;;21.90;56.20;;;-144.05;30.10;125687.94;4956140;28;20062;-90
2022/05/27 13:46:54;;;;;;;8.20;2.10;;;22.00;55.70;;;-144.05;30.00;125687.94;4866033;28;20176;-89
2022/05/27 13:49:49;;;;;;;7.88;2.10;;;22.00;55.30;;;-144.05;31.10;125687.94;4971533;28;20488;-89
2022/05/27 13:52:37;;;;;;;7.22;1.95;;;21.60;56.70;;;-144.05;30.58;125687.94;4972235;28;20042;-89
2022/05/27 13:55:11;;;;;;;13.77;2.17;;;21.60;56.90;;;-144.05;30.30;125687.94;4974540;28;20027;-88
2022/05/27 13:58:33;;;;;;;;;;;;;;;;;;;;;